Belding, Michigan
Current Conditions -  °F | °C
As of 11:34 PM on Thursday 20 Nov 2014 (Local Time) from KY70 Reporting Station
Overcast Overcast  
Wind Chill:   Ceiling: 6500
Heat Index: 16°   Visibility: 10mi
Dew Point: 12°   Wind: 7mph
Humidity: 86%   Direction: 280°W
Pressure: 30.16"   Gusts: NA
Location:  43.1°N, 85.23°W
Report Text: KY70 210434Z AUTO 28006KT 10SM OVC065 M09/M11 A3016 RMK AO2 T10901109
Loading
Personal Weather Stations






























Interactive Weather Map New forecast layout! Learn more

10-Day Weather Forecast

Advertisements
Track Severe Weather on mobile